createdAt,value
2022-12-15T00:00:21.333Z,-8.6
2022-12-15T00:01:21.309Z,-8.6
2022-12-15T00:02:21.538Z,-8.6
2022-12-15T00:03:21.402Z,-8.6
2022-12-15T00:04:21.310Z,-8.6
2022-12-15T00:05:21.309Z,-8.5
2022-12-15T00:06:21.427Z,-8.6
2022-12-15T00:07:21.616Z,-8.6
2022-12-15T00:08:21.982Z,-8.6
2022-12-15T00:09:22.393Z,-8.6
2022-12-15T00:10:21.571Z,-8.6
2022-12-15T00:11:21.407Z,-8.6
2022-12-15T00:12:21.307Z,-8.6
2022-12-15T00:13:21.570Z,-8.6
2022-12-15T00:14:21.376Z,-8.6
2022-12-15T00:15:21.592Z,-8.6
2022-12-15T00:16:21.352Z,-8.6
2022-12-15T00:17:21.429Z,-8.6
2022-12-15T00:18:21.313Z,-8.6
2022-12-15T00:19:21.585Z,-8.6
2022-12-15T00:20:21.423Z,-8.6
2022-12-15T00:21:21.317Z,-8.6
2022-12-15T00:22:21.407Z,-8.6
2022-12-15T00:23:21.307Z,-8.6
2022-12-15T00:24:21.308Z,-8.6
2022-12-15T00:25:21.313Z,-8.6
2022-12-15T00:26:21.306Z,-8.6
2022-12-15T00:27:21.306Z,-8.6
2022-12-15T00:28:21.316Z,-8.6
2022-12-15T00:29:21.311Z,-8.6
2022-12-15T00:30:21.312Z,-8.6
2022-12-15T00:31:21.370Z,-8.6
2022-12-15T00:32:21.309Z,-8.6
2022-12-15T00:33:21.312Z,-8.6
2022-12-15T00:34:21.321Z,-8.6
2022-12-15T00:35:21.313Z,-8.6
2022-12-15T00:36:21.410Z,-8.6
2022-12-15T00:37:21.310Z,-8.6
2022-12-15T00:38:21.309Z,-8.6
2022-12-15T00:39:21.326Z,-8.6
2022-12-15T00:40:21.329Z,-8.6
2022-12-15T00:41:21.315Z,-8.6
2022-12-15T00:42:21.309Z,-8.6
2022-12-15T00:43:21.311Z,-8.6
2022-12-15T00:44:21.324Z,-8.6
2022-12-15T00:45:21.313Z,-8.6
2022-12-15T00:46:21.343Z,-8.6
2022-12-15T00:47:21.320Z,-8.7
2022-12-15T00:48:21.312Z,-8.7
2022-12-15T00:49:21.315Z,-8.7
2022-12-15T00:50:21.354Z,-8.7
2022-12-15T00:51:21.737Z,-8.7
2022-12-15T00:52:21.311Z,-8.7
2022-12-15T00:53:21.326Z,-8.7
2022-12-15T00:54:21.318Z,-8.7
2022-12-15T00:55:21.310Z,-8.7
2022-12-15T00:56:21.307Z,-8.7
2022-12-15T00:57:21.314Z,-8.7
2022-12-15T00:58:21.308Z,-8.7
2022-12-15T00:59:21.313Z,-8.8
2022-12-15T01:00:21.307Z,-8.8
2022-12-15T01:01:21.481Z,-8.8
2022-12-15T01:02:21.451Z,-8.8
2022-12-15T01:03:21.416Z,-8.8
2022-12-15T01:04:21.367Z,-8.8
2022-12-15T01:05:21.315Z,-8.9
2022-12-15T01:06:21.434Z,-8.9
2022-12-15T01:07:21.308Z,-8.9
2022-12-15T01:08:21.308Z,-8.9
2022-12-15T01:09:21.326Z,-8.9
2022-12-15T01:10:21.318Z,-8.9
2022-12-15T01:11:21.306Z,-8.9
2022-12-15T01:12:21.307Z,-8.9
2022-12-15T01:13:21.307Z,-8.9
2022-12-15T01:14:21.309Z,-9
2022-12-15T01:15:21.311Z,-9
2022-12-15T01:16:21.338Z,-9
2022-12-15T01:17:21.307Z,-9
2022-12-15T01:18:21.331Z,-9
2022-12-15T01:19:21.318Z,-9
2022-12-15T01:20:21.436Z,-9
2022-12-15T01:21:24.543Z,-9
2022-12-15T01:22:21.308Z,-9
2022-12-15T01:23:21.334Z,-9
2022-12-15T01:24:21.314Z,-9
2022-12-15T01:25:21.313Z,-9
2022-12-15T01:26:21.319Z,-9
2022-12-15T01:27:21.310Z,-9
2022-12-15T01:28:21.327Z,-9
2022-12-15T01:29:21.307Z,-9
2022-12-15T01:30:21.307Z,-9
2022-12-15T01:31:21.340Z,-9
2022-12-15T01:32:21.313Z,-9
2022-12-15T01:33:21.335Z,-9
2022-12-15T01:34:21.314Z,-9
2022-12-15T01:35:21.327Z,-9
2022-12-15T01:36:21.316Z,-9
2022-12-15T01:37:21.307Z,-9
2022-12-15T01:38:21.334Z,-9
2022-12-15T01:39:21.315Z,-9
2022-12-15T01:40:21.313Z,-9
2022-12-15T01:41:21.319Z,-9
2022-12-15T01:42:21.308Z,-9
2022-12-15T01:43:21.344Z,-9
2022-12-15T01:44:21.313Z,-9
2022-12-15T01:45:21.311Z,-9
2022-12-15T01:46:21.395Z,-9
2022-12-15T01:47:21.311Z,-9
2022-12-15T01:48:21.500Z,-9
2022-12-15T01:49:21.317Z,-9
2022-12-15T01:50:21.310Z,-9
2022-12-15T01:51:21.310Z,-9
2022-12-15T01:52:21.306Z,-9
2022-12-15T01:53:21.311Z,-9
2022-12-15T01:54:21.308Z,-9
2022-12-15T01:55:21.360Z,-9
2022-12-15T01:56:21.306Z,-8.9
2022-12-15T01:57:21.311Z,-8.9
2022-12-15T01:58:21.310Z,-8.9
2022-12-15T01:59:21.319Z,-8.9
2022-12-15T02:00:21.313Z,-8.9
2022-12-15T02:01:21.439Z,-8.9
2022-12-15T02:02:21.479Z,-8.9
2022-12-15T02:03:21.483Z,-8.9
2022-12-15T02:04:21.308Z,-8.8
2022-12-15T02:05:21.309Z,-8.8
2022-12-15T02:06:21.310Z,-8.8
2022-12-15T02:07:21.308Z,-8.7
2022-12-15T02:08:21.620Z,-8.7
2022-12-15T02:09:21.863Z,-8.7
2022-12-15T02:10:21.336Z,-8.7
2022-12-15T02:11:21.538Z,-8.6
2022-12-15T02:12:21.308Z,-8.6
2022-12-15T02:13:21.313Z,-8.6
2022-12-15T02:14:21.308Z,-8.6
2022-12-15T02:15:21.333Z,-8.6
2022-12-15T02:16:21.412Z,-8.6
2022-12-15T02:17:21.323Z,-8.6
2022-12-15T02:18:21.318Z,-8.6
2022-12-15T02:19:21.327Z,-8.6
2022-12-15T02:20:21.306Z,-8.6
2022-12-15T02:21:21.356Z,-8.6
2022-12-15T02:22:21.310Z,-8.6
2022-12-15T02:23:21.319Z,-8.6
2022-12-15T02:24:21.357Z,-8.5
2022-12-15T02:25:21.338Z,-8.5
2022-12-15T02:26:21.307Z,-8.5
2022-12-15T02:27:21.326Z,-8.5
2022-12-15T02:28:21.520Z,-8.5
2022-12-15T02:29:21.327Z,-8.5
2022-12-15T02:30:21.308Z,-8.5
2022-12-15T02:31:21.386Z,-8.5
2022-12-15T02:32:21.313Z,-8.5
2022-12-15T02:33:21.319Z,-8.5
2022-12-15T02:34:21.330Z,-8.5
2022-12-15T02:35:21.316Z,-8.6
2022-12-15T02:36:21.340Z,-8.6
2022-12-15T02:37:21.308Z,-8.6
2022-12-15T02:38:21.307Z,-8.6
2022-12-15T02:39:21.331Z,-8.6
2022-12-15T02:40:21.318Z,-8.6
2022-12-15T02:41:21.328Z,-8.6
2022-12-15T02:42:21.316Z,-8.6
2022-12-15T02:43:21.322Z,-8.6
2022-12-15T02:44:21.325Z,-8.6
2022-12-15T02:45:21.393Z,-8.6
2022-12-15T02:46:21.372Z,-8.6
2022-12-15T02:47:21.315Z,-8.6
2022-12-15T02:48:21.310Z,-8.6
2022-12-15T02:49:21.333Z,-8.6
2022-12-15T02:50:21.311Z,-8.6
2022-12-15T02:51:21.314Z,-8.6
2022-12-15T02:52:21.310Z,-8.5
2022-12-15T02:53:21.308Z,-8.4
2022-12-15T02:54:21.336Z,-8.4
2022-12-15T02:55:21.314Z,-8.3
2022-12-15T02:56:21.311Z,-8.3
2022-12-15T02:57:21.326Z,-8.2
2022-12-15T02:58:21.315Z,-8
2022-12-15T02:59:21.341Z,-8
2022-12-15T03:00:21.372Z,-7.9
2022-12-15T03:01:21.439Z,-7.8
2022-12-15T03:02:21.378Z,-7.7
2022-12-15T03:03:21.343Z,-7.6
2022-12-15T03:04:21.316Z,-7.5
2022-12-15T03:05:21.314Z,-7.4
2022-12-15T03:06:21.308Z,-7.3
2022-12-15T03:07:21.313Z,-7.2
2022-12-15T03:08:21.313Z,-7.1
2022-12-15T03:09:21.313Z,-7
2022-12-15T03:10:21.315Z,-6.9
2022-12-15T03:11:21.311Z,-6.8
2022-12-15T03:12:21.310Z,-6.8
2022-12-15T03:13:21.305Z,-6.6
2022-12-15T03:14:21.313Z,-6.5
2022-12-15T03:15:21.313Z,-6.5
2022-12-15T03:16:21.352Z,-6.3
2022-12-15T03:17:21.308Z,-6.3
2022-12-15T03:18:21.309Z,-6.2
2022-12-15T03:19:21.309Z,-6.2
2022-12-15T03:20:21.310Z,-6.1
2022-12-15T03:21:21.309Z,-6.1
2022-12-15T03:22:21.319Z,-6
2022-12-15T03:23:21.325Z,-5.9
2022-12-15T03:24:21.318Z,-5.9
2022-12-15T03:25:21.562Z,-5.9
2022-12-15T03:26:21.583Z,-5.8
2022-12-15T03:27:21.326Z,-5.8
2022-12-15T03:28:21.314Z,-5.7
2022-12-15T03:29:21.305Z,-5.7
2022-12-15T03:30:21.325Z,-5.7
2022-12-15T03:31:21.317Z,-5.7
2022-12-15T03:32:21.339Z,-5.6
2022-12-15T03:33:21.311Z,-5.6
2022-12-15T03:34:21.337Z,-5.6
2022-12-15T03:35:21.311Z,-5.5
2022-12-15T03:36:21.308Z,-5.5
2022-12-15T03:37:21.312Z,-5.5
2022-12-15T03:38:21.433Z,-5.4
2022-12-15T03:39:21.323Z,-5.4
2022-12-15T03:40:21.407Z,-5.4
2022-12-15T03:41:21.317Z,-5.4
2022-12-15T03:42:21.490Z,-5.4
2022-12-15T03:43:21.317Z,-5.3
2022-12-15T03:44:21.547Z,-5.3
2022-12-15T03:45:21.311Z,-5.2
2022-12-15T03:46:21.568Z,-5.2
2022-12-15T03:47:21.327Z,-5.2
2022-12-15T03:48:21.546Z,-5.2
2022-12-15T03:49:21.322Z,-5.2
2022-12-15T03:50:21.575Z,-5.2
2022-12-15T03:51:21.385Z,-5.2
2022-12-15T03:52:21.705Z,-5.2
2022-12-15T03:53:21.498Z,-5.2
2022-12-15T03:54:21.329Z,-5.2
2022-12-15T03:55:21.339Z,-5.3
2022-12-15T03:56:21.581Z,-5.3
2022-12-15T03:57:21.308Z,-5.3
2022-12-15T03:58:21.310Z,-5.3
2022-12-15T03:59:21.340Z,-5.3
2022-12-15T04:00:21.313Z,-5.3
2022-12-15T04:01:21.433Z,-5.2
2022-12-15T04:02:21.583Z,-5.2
2022-12-15T04:03:21.315Z,-5.3
2022-12-15T04:04:21.327Z,-5.3
2022-12-15T04:05:21.335Z,-5.3
2022-12-15T04:06:21.389Z,-5.3
2022-12-15T04:07:21.308Z,-5.3
2022-12-15T04:08:21.309Z,-5.4
2022-12-15T04:09:21.308Z,-5.4
2022-12-15T04:10:21.322Z,-5.4
2022-12-15T04:11:21.306Z,-5.5
2022-12-15T04:12:21.314Z,-5.6
2022-12-15T04:13:21.315Z,-5.6
2022-12-15T04:14:21.307Z,-5.6
2022-12-15T04:15:21.331Z,-5.7
2022-12-15T04:16:21.395Z,-5.7
2022-12-15T04:17:21.313Z,-5.8
2022-12-15T04:18:21.313Z,-5.9
2022-12-15T04:19:21.311Z,-5.9
2022-12-15T04:20:21.330Z,-6
2022-12-15T04:21:21.323Z,-6
2022-12-15T04:22:21.311Z,-6.1
2022-12-15T04:23:21.313Z,-6.1
2022-12-15T04:24:21.317Z,-6.1
2022-12-15T04:25:21.328Z,-6.2
2022-12-15T04:26:21.522Z,-6.2
2022-12-15T04:27:21.308Z,-6.2
2022-12-15T04:28:21.312Z,-6.3
2022-12-15T04:29:21.308Z,-6.3
2022-12-15T04:30:21.350Z,-6.3
2022-12-15T04:31:21.344Z,-6.3
2022-12-15T04:32:21.314Z,-6.3
2022-12-15T04:33:23.166Z,-6.3
2022-12-15T04:34:21.335Z,-6.3
2022-12-15T04:35:21.327Z,-6.3
2022-12-15T04:36:21.307Z,-6.3
2022-12-15T04:37:21.313Z,-6.4
2022-12-15T04:38:21.306Z,-6.4
2022-12-15T04:39:21.307Z,-6.4
2022-12-15T04:40:21.335Z,-6.5
2022-12-15T04:41:21.308Z,-6.5
2022-12-15T04:42:21.316Z,-6.5
2022-12-15T04:43:21.307Z,-6.5
2022-12-15T04:44:21.316Z,-6.5
2022-12-15T04:45:21.369Z,-6.6
2022-12-15T04:46:21.334Z,-6.6
2022-12-15T04:47:21.315Z,-6.7
2022-12-15T04:48:21.310Z,-6.7
2022-12-15T04:49:21.306Z,-6.8
2022-12-15T04:50:21.313Z,-6.8
2022-12-15T04:51:23.635Z,-6.8
2022-12-15T04:52:21.305Z,-6.8
2022-12-15T04:53:21.310Z,-6.9
2022-12-15T04:54:21.308Z,-6.9
2022-12-15T04:55:21.339Z,-7
2022-12-15T04:56:21.314Z,-7
2022-12-15T04:57:21.312Z,-7
2022-12-15T04:58:21.308Z,-7
2022-12-15T04:59:21.354Z,-7.1
2022-12-15T05:00:21.312Z,-7.1
2022-12-15T05:01:21.411Z,-7.2
2022-12-15T05:02:21.452Z,-7.2
2022-12-15T05:03:21.318Z,-7.2
2022-12-15T05:04:21.487Z,-7.2
2022-12-15T05:05:21.308Z,-7.2
2022-12-15T05:06:21.307Z,-7.3
2022-12-15T05:07:21.308Z,-7.3
2022-12-15T05:08:21.313Z,-7.3
2022-12-15T05:09:21.367Z,-7.4
2022-12-15T05:10:21.314Z,-7.4
2022-12-15T05:11:21.311Z,-7.5
2022-12-15T05:12:21.313Z,-7.5
2022-12-15T05:13:21.307Z,-7.5
2022-12-15T05:14:21.336Z,-7.5
2022-12-15T05:15:21.309Z,-7.6
2022-12-15T05:16:21.347Z,-7.6
2022-12-15T05:17:21.382Z,-7.6
2022-12-15T05:18:21.307Z,-7.7
2022-12-15T05:19:21.305Z,-7.7
2022-12-15T05:20:21.313Z,-7.7
2022-12-15T05:21:21.306Z,-7.7
2022-12-15T05:22:21.312Z,-7.7
2022-12-15T05:23:21.311Z,-7.8
2022-12-15T05:24:21.309Z,-7.8
2022-12-15T05:25:21.314Z,-7.8
2022-12-15T05:26:21.317Z,-7.8
2022-12-15T05:27:21.345Z,-7.9
2022-12-15T05:28:21.370Z,-7.9
2022-12-15T05:29:21.420Z,-7.9
2022-12-15T05:30:21.401Z,-7.9
2022-12-15T05:31:21.381Z,-7.9
2022-12-15T05:32:21.405Z,-8
2022-12-15T05:33:21.313Z,-8
2022-12-15T05:34:21.575Z,-8
2022-12-15T05:35:21.475Z,-8
2022-12-15T05:36:21.339Z,-8
2022-12-15T05:37:21.587Z,-8
2022-12-15T05:38:21.807Z,-8
2022-12-15T05:39:21.435Z,-8
2022-12-15T05:40:21.307Z,-8
2022-12-15T05:41:21.308Z,-8
2022-12-15T05:42:21.328Z,-8
2022-12-15T05:43:26.476Z,-8
2022-12-15T05:44:22.130Z,-8
2022-12-15T05:45:21.398Z,-8
2022-12-15T05:46:21.625Z,-8
2022-12-15T05:47:21.332Z,-8
2022-12-15T05:48:21.312Z,-8
2022-12-15T05:49:21.309Z,-7.9
2022-12-15T05:50:21.311Z,-7.9
2022-12-15T05:51:21.305Z,-7.8
2022-12-15T05:52:21.332Z,-7.8
2022-12-15T05:53:21.312Z,-7.7
2022-12-15T05:54:21.312Z,-7.7
2022-12-15T05:55:21.307Z,-7.7
2022-12-15T05:56:21.309Z,-7.6
2022-12-15T05:57:21.328Z,-7.6
2022-12-15T05:58:21.314Z,-7.5
2022-12-15T05:59:21.315Z,-7.5
2022-12-15T06:00:21.307Z,-7.5
2022-12-15T06:01:21.331Z,-7.4
2022-12-15T06:02:21.340Z,-7.4
2022-12-15T06:03:21.311Z,-7.3
2022-12-15T06:04:21.366Z,-7.2
2022-12-15T06:05:21.314Z,-7.2
2022-12-15T06:06:21.312Z,-7.2
2022-12-15T06:07:21.305Z,-7.2
2022-12-15T06:08:21.310Z,-7.2
2022-12-15T06:09:21.335Z,-7.1
2022-12-15T06:10:21.316Z,-7.1
2022-12-15T06:11:21.306Z,-7.1
2022-12-15T06:12:21.306Z,-7.1
2022-12-15T06:13:21.303Z,-7.1
2022-12-15T06:14:21.339Z,-7.1
2022-12-15T06:15:21.312Z,-7.1
2022-12-15T06:16:21.381Z,-7.1
2022-12-15T06:17:21.305Z,-7.1
2022-12-15T06:18:21.307Z,-7.1
2022-12-15T06:19:21.337Z,-7.1
2022-12-15T06:20:21.311Z,-7.1
2022-12-15T06:21:21.307Z,-7.1
2022-12-15T06:22:21.306Z,-7.1
2022-12-15T06:23:21.313Z,-7.2
2022-12-15T06:24:21.323Z,-7.2
2022-12-15T06:25:21.315Z,-7.2
2022-12-15T06:26:21.315Z,-7.2
2022-12-15T06:27:21.310Z,-7.2
2022-12-15T06:28:21.311Z,-7.2
2022-12-15T06:29:21.339Z,-7.2
2022-12-15T06:30:21.311Z,-7.3
2022-12-15T06:31:21.323Z,-7.3
2022-12-15T06:32:21.346Z,-7.3
2022-12-15T06:33:21.312Z,-7.4
2022-12-15T06:34:21.328Z,-7.4
2022-12-15T06:35:21.307Z,-7.4
2022-12-15T06:36:21.318Z,-7.5
2022-12-15T06:37:21.312Z,-7.5
2022-12-15T06:38:21.314Z,-7.5
2022-12-15T06:39:21.333Z,-7.5
2022-12-15T06:40:21.315Z,-7.5
2022-12-15T06:41:21.316Z,-7.5
2022-12-15T06:42:21.309Z,-7.6
2022-12-15T06:43:21.311Z,-7.6
2022-12-15T06:44:21.322Z,-7.7
2022-12-15T06:45:21.313Z,-7.7
2022-12-15T06:46:21.334Z,-7.7
2022-12-15T06:47:21.312Z,-7.7
2022-12-15T06:48:21.331Z,-7.7
2022-12-15T06:49:21.315Z,-7.7
2022-12-15T06:50:21.310Z,-7.7
2022-12-15T06:51:21.318Z,-7.7
2022-12-15T06:52:21.426Z,-7.7
2022-12-15T06:53:21.336Z,-7.7
2022-12-15T06:54:21.316Z,-7.7
2022-12-15T06:55:21.312Z,-7.7
2022-12-15T06:56:24.368Z,-7.6
2022-12-15T06:57:21.307Z,-7.6
2022-12-15T06:58:21.333Z,-7.6
2022-12-15T06:59:21.312Z,-7.6
2022-12-15T07:00:21.559Z,-7.5
2022-12-15T07:01:21.356Z,-7.5
2022-12-15T07:02:26.984Z,-7.5
2022-12-15T07:03:21.479Z,-7.5
2022-12-15T07:04:21.330Z,-7.5
2022-12-15T07:05:21.308Z,-7.5
2022-12-15T07:06:21.319Z,-7.4
2022-12-15T07:07:21.314Z,-7.4
2022-12-15T07:08:24.437Z,-7.3
2022-12-15T07:09:21.314Z,-7.3
2022-12-15T07:10:21.408Z,-7.2
2022-12-15T07:11:21.307Z,-7.2
2022-12-15T07:12:21.311Z,-7.2
2022-12-15T07:13:21.338Z,-7.2
2022-12-15T07:14:21.329Z,-7.2
2022-12-15T07:15:21.318Z,-7.1
2022-12-15T07:16:21.363Z,-7.1
2022-12-15T07:17:21.311Z,-7.1
2022-12-15T07:18:21.308Z,-7
2022-12-15T07:19:21.332Z,-7
2022-12-15T07:20:25.514Z,-7
2022-12-15T07:21:21.309Z,-7
2022-12-15T07:22:21.326Z,-7
2022-12-15T07:23:34.345Z,-7
2022-12-15T07:24:21.334Z,-7
2022-12-15T07:25:21.306Z,-7
2022-12-15T07:26:21.550Z,-7
2022-12-15T07:27:21.412Z,-7
2022-12-15T07:28:25.719Z,-7
2022-12-15T07:29:23.387Z,-7
2022-12-15T07:30:21.390Z,-7
2022-12-15T07:31:21.624Z,-7
2022-12-15T07:32:21.309Z,-7
2022-12-15T07:33:21.316Z,-7
2022-12-15T07:34:21.336Z,-7
2022-12-15T07:35:21.310Z,-7
2022-12-15T07:36:21.309Z,-7
2022-12-15T07:37:21.323Z,-7
2022-12-15T07:38:21.315Z,-7
2022-12-15T07:39:21.315Z,-7
2022-12-15T07:40:21.308Z,-7
2022-12-15T07:41:21.331Z,-6.9
2022-12-15T07:42:21.317Z,-6.9
2022-12-15T07:43:21.315Z,-6.9
2022-12-15T07:44:21.318Z,-6.9
2022-12-15T07:45:21.330Z,-6.9
2022-12-15T07:46:21.359Z,-6.9
2022-12-15T07:47:21.308Z,-6.9
2022-12-15T07:48:21.334Z,-6.9
2022-12-15T07:49:21.307Z,-6.9
2022-12-15T07:50:21.316Z,-6.9
2022-12-15T07:51:21.470Z,-6.9
2022-12-15T07:52:21.313Z,-6.9
2022-12-15T07:53:21.447Z,-6.8
2022-12-15T07:54:21.320Z,-6.8
2022-12-15T07:55:32.444Z,-6.8
2022-12-15T07:56:21.305Z,-6.8
2022-12-15T07:57:21.312Z,-6.8
2022-12-15T07:58:21.327Z,-6.8
2022-12-15T07:59:21.312Z,-6.7
2022-12-15T08:00:21.309Z,-6.7
2022-12-15T08:01:21.558Z,-6.7
2022-12-15T08:02:21.729Z,-6.7
2022-12-15T08:03:21.486Z,-6.6
2022-12-15T08:04:21.308Z,-6.6
2022-12-15T08:05:21.316Z,-6.6
2022-12-15T08:06:21.346Z,-6.6
2022-12-15T08:07:21.683Z,-6.6
2022-12-15T08:08:21.461Z,-6.6
2022-12-15T08:09:21.310Z,-6.5
2022-12-15T08:10:21.523Z,-6.5
2022-12-15T08:11:21.314Z,-6.5
2022-12-15T08:12:21.579Z,-6.5
2022-12-15T08:13:38.390Z,-6.5
2022-12-15T08:14:21.858Z,-6.5
2022-12-15T08:15:21.345Z,-6.5
2022-12-15T08:16:21.641Z,-6.5
2022-12-15T08:17:21.325Z,-6.5
2022-12-15T08:18:21.310Z,-6.5
2022-12-15T08:19:21.309Z,-6.5
2022-12-15T08:20:21.316Z,-6.5
2022-12-15T08:21:21.315Z,-6.5
2022-12-15T08:22:21.400Z,-6.5
2022-12-15T08:23:21.309Z,-6.5
2022-12-15T08:24:21.310Z,-6.5
2022-12-15T08:25:21.314Z,-6.5
2022-12-15T08:26:25.147Z,-6.5
2022-12-15T08:27:21.317Z,-6.4
2022-12-15T08:28:21.314Z,-6.4
2022-12-15T08:29:49.971Z,-6.4
2022-12-15T08:30:21.308Z,-6.4
2022-12-15T08:31:21.331Z,-6.3
2022-12-15T08:32:21.390Z,-6.3
2022-12-15T08:33:21.314Z,-6.3
2022-12-15T08:34:21.316Z,-6.3
2022-12-15T08:35:47.285Z,-6.3
2022-12-15T08:36:21.310Z,-6.3
2022-12-15T08:37:21.315Z,-6.3
2022-12-15T08:38:21.312Z,-6.2
2022-12-15T08:39:21.316Z,-6.2
2022-12-15T08:40:21.322Z,-6.2
2022-12-15T08:41:21.310Z,-6.2
2022-12-15T08:42:21.314Z,-6.2
2022-12-15T08:43:21.308Z,-6.1
2022-12-15T08:44:21.313Z,-6.1
2022-12-15T08:45:21.310Z,-6.1
2022-12-15T08:46:21.336Z,-6.1
2022-12-15T08:47:21.310Z,-6.1
2022-12-15T08:48:21.311Z,-6.1
2022-12-15T08:49:22.251Z,-6.1
2022-12-15T08:50:21.312Z,-6.1
2022-12-15T08:51:21.314Z,-6.1
2022-12-15T08:52:21.307Z,-6
2022-12-15T08:53:31.097Z,-6
2022-12-15T08:54:21.438Z,-5.9
2022-12-15T08:55:22.578Z,-5.9
2022-12-15T08:56:21.317Z,-5.9
2022-12-15T08:57:21.309Z,-5.9
2022-12-15T08:58:21.309Z,-5.8
2022-12-15T08:59:21.316Z,-5.8
2022-12-15T09:00:21.312Z,-5.7
2022-12-15T09:01:23.552Z,-5.7
2022-12-15T09:02:21.428Z,-5.7
2022-12-15T09:03:21.311Z,-5.7
2022-12-15T09:04:21.361Z,-5.7
2022-12-15T09:05:21.314Z,-5.6
2022-12-15T09:06:21.309Z,-5.6
2022-12-15T09:07:21.311Z,-5.6
2022-12-15T09:08:21.309Z,-5.6
2022-12-15T09:09:21.333Z,-5.5
2022-12-15T09:10:21.312Z,-5.5
2022-12-15T09:11:21.313Z,-5.5
2022-12-15T09:12:21.309Z,-5.4
2022-12-15T09:13:21.309Z,-5.4
2022-12-15T09:14:28.755Z,-5.4
2022-12-15T09:15:34.065Z,-5.3
2022-12-15T09:16:21.346Z,-5.3
2022-12-15T09:17:21.429Z,-5.2
2022-12-15T09:18:21.567Z,-5.2
2022-12-15T09:19:22.140Z,-5.2
2022-12-15T09:20:21.311Z,-5.2
2022-12-15T09:21:21.570Z,-5.2
2022-12-15T09:22:21.315Z,-5.1
2022-12-15T09:23:21.320Z,-5.1
2022-12-15T09:24:29.140Z,-5
2022-12-15T09:25:21.314Z,-5
2022-12-15T09:26:21.332Z,-5
2022-12-15T09:27:21.310Z,-5
2022-12-15T09:28:21.307Z,-4.9
2022-12-15T09:29:21.419Z,-4.9
2022-12-15T09:30:21.317Z,-4.9
2022-12-15T09:31:21.406Z,-4.8
2022-12-15T09:32:21.313Z,-4.8
2022-12-15T09:33:21.307Z,-4.7
2022-12-15T09:34:21.312Z,-4.7
2022-12-15T09:35:21.315Z,-4.6
2022-12-15T09:36:21.322Z,-4.6
2022-12-15T09:37:21.308Z,-4.6
2022-12-15T09:38:21.343Z,-4.6
2022-12-15T09:39:21.315Z,-4.6
2022-12-15T09:40:21.307Z,-4.6
2022-12-15T09:41:21.318Z,-4.5
2022-12-15T09:42:21.315Z,-4.5
2022-12-15T09:43:34.213Z,-4.4
2022-12-15T09:44:21.323Z,-4.4
2022-12-15T09:45:21.316Z,-4.3
2022-12-15T09:46:21.401Z,-4.3
2022-12-15T09:47:21.313Z,-4.2
2022-12-15T09:48:21.338Z,-4.2
2022-12-15T09:49:21.309Z,-4.2
2022-12-15T09:50:21.325Z,-4.2
2022-12-15T09:51:21.310Z,-4.1
2022-12-15T09:52:21.314Z,-4.1
2022-12-15T09:53:52.788Z,-4.1
2022-12-15T09:54:21.315Z,-4
2022-12-15T09:55:21.330Z,-3.9
2022-12-15T09:56:21.315Z,-3.9
2022-12-15T09:57:21.312Z,-3.9
2022-12-15T09:58:21.348Z,-3.8
2022-12-15T09:59:21.318Z,-3.8
2022-12-15T10:00:21.344Z,-3.8
2022-12-15T10:01:21.332Z,-3.8
2022-12-15T10:02:21.438Z,-3.7
2022-12-15T10:03:21.511Z,-3.7
2022-12-15T10:04:21.353Z,-3.7
2022-12-15T10:05:21.331Z,-3.6
2022-12-15T10:06:21.943Z,-3.6
2022-12-15T10:07:21.307Z,-3.5
2022-12-15T10:08:21.314Z,-3.5
2022-12-15T10:09:21.312Z,-3.5
2022-12-15T10:10:21.332Z,-3.5
2022-12-15T10:11:21.313Z,-3.5
2022-12-15T10:12:21.313Z,-3.4
2022-12-15T10:13:21.318Z,-3.4
2022-12-15T10:14:21.321Z,-3.4
2022-12-15T10:15:21.348Z,-3.3
2022-12-15T10:16:21.333Z,-3.3
2022-12-15T10:17:21.321Z,-3.3
2022-12-15T10:18:21.308Z,-3.2
2022-12-15T10:19:21.306Z,-3.2
2022-12-15T10:20:21.337Z,-3.2
2022-12-15T10:21:21.315Z,-3.1
2022-12-15T10:22:21.312Z,-3.1
2022-12-15T10:23:21.324Z,-3.1
2022-12-15T10:24:37.784Z,-3.1
2022-12-15T10:25:27.775Z,-3.1
2022-12-15T10:26:21.310Z,-3.1
2022-12-15T10:27:22.360Z,-3
2022-12-15T10:28:21.314Z,-3
2022-12-15T10:29:21.317Z,-3
2022-12-15T10:30:21.379Z,-3
2022-12-15T10:31:21.348Z,-2.9
2022-12-15T10:32:21.420Z,-2.9
2022-12-15T10:33:21.645Z,-2.9
2022-12-15T10:34:22.041Z,-2.9
2022-12-15T10:35:21.595Z,-2.9
2022-12-15T10:36:21.314Z,-2.8
2022-12-15T10:37:21.311Z,-2.8
2022-12-15T10:38:21.315Z,-2.8
2022-12-15T10:39:21.343Z,-2.8
2022-12-15T10:40:21.313Z,-2.8
2022-12-15T10:41:21.314Z,-2.8
2022-12-15T10:42:21.313Z,-2.7
2022-12-15T10:43:21.314Z,-2.7
2022-12-15T10:44:21.329Z,-2.6
2022-12-15T10:45:21.321Z,-2.6
2022-12-15T10:46:21.429Z,-2.6
2022-12-15T10:47:21.312Z,-2.5
2022-12-15T10:48:21.337Z,-2.5
2022-12-15T10:49:21.311Z,-2.5
2022-12-15T10:50:24.420Z,-2.5
2022-12-15T10:51:21.312Z,-2.5
2022-12-15T10:52:21.315Z,-2.4
2022-12-15T10:53:21.337Z,-2.4
2022-12-15T10:54:21.317Z,-2.4
2022-12-15T10:55:21.312Z,-2.3
2022-12-15T10:56:21.317Z,-2.3
2022-12-15T10:57:21.337Z,-2.2
2022-12-15T10:58:21.749Z,-2.2
2022-12-15T10:59:21.308Z,-2.2
2022-12-15T11:00:21.363Z,-2.2
2022-12-15T11:01:21.545Z,-2.2
2022-12-15T11:02:24.210Z,-2.1
2022-12-15T11:03:21.745Z,-2.1
2022-12-15T11:04:21.335Z,-2.1
2022-12-15T11:05:21.322Z,-2.1
2022-12-15T11:06:21.311Z,-2
2022-12-15T11:07:21.309Z,-2
2022-12-15T11:08:21.340Z,-2
2022-12-15T11:09:21.316Z,-2
2022-12-15T11:10:21.414Z,-2
2022-12-15T11:11:25.919Z,-2
2022-12-15T11:12:21.318Z,-1.9
2022-12-15T11:13:21.333Z,-1.9
2022-12-15T11:14:21.308Z,-1.9
2022-12-15T11:15:21.314Z,-1.8
2022-12-15T11:16:21.313Z,-1.8
2022-12-15T11:17:21.309Z,-1.8
2022-12-15T11:18:21.338Z,-1.8
2022-12-15T11:19:21.315Z,-1.7
2022-12-15T11:20:21.310Z,-1.7
2022-12-15T11:21:21.314Z,-1.7
2022-12-15T11:22:21.315Z,-1.7
2022-12-15T11:23:21.337Z,-1.7
2022-12-15T11:24:21.332Z,-1.7
2022-12-15T11:25:21.454Z,-1.7
2022-12-15T11:26:21.315Z,-1.6
2022-12-15T11:27:21.315Z,-1.6
2022-12-15T11:28:21.325Z,-1.6
2022-12-15T11:29:21.317Z,-1.5
2022-12-15T11:30:21.310Z,-1.5
2022-12-15T11:31:21.314Z,-1.5
2022-12-15T11:32:21.310Z,-1.5
2022-12-15T11:33:21.318Z,-1.5
2022-12-15T11:34:21.316Z,-1.5
2022-12-15T11:35:21.316Z,-1.5
2022-12-15T11:36:21.445Z,-1.5
2022-12-15T11:37:21.316Z,-1.4
2022-12-15T11:38:21.331Z,-1.4
2022-12-15T11:39:21.355Z,-1.4
2022-12-15T11:40:21.319Z,-1.4
2022-12-15T11:41:21.578Z,-1.4
2022-12-15T11:42:21.453Z,-1.4
2022-12-15T11:43:21.710Z,-1.3
2022-12-15T11:44:21.309Z,-1.3
2022-12-15T11:45:21.319Z,-1.3
2022-12-15T11:46:21.315Z,-1.3
2022-12-15T11:47:21.357Z,-1.2
2022-12-15T11:48:21.579Z,-1.2
2022-12-15T11:49:21.420Z,-1.2
2022-12-15T11:50:21.317Z,-1.2
2022-12-15T11:51:21.492Z,-1.2
2022-12-15T11:52:21.314Z,-1.2
2022-12-15T11:53:21.460Z,-1.2
2022-12-15T11:54:21.332Z,-1.2
2022-12-15T11:55:25.865Z,-1.1
2022-12-15T11:56:21.314Z,-1.1
2022-12-15T11:57:21.312Z,-1.1
2022-12-15T11:58:21.313Z,-1.1
2022-12-15T11:59:21.330Z,-1.1
2022-12-15T12:00:21.315Z,-1
2022-12-15T12:01:21.356Z,-1
2022-12-15T12:02:21.420Z,-1
2022-12-15T12:03:21.351Z,-1
2022-12-15T12:04:21.345Z,-1
2022-12-15T12:05:21.313Z,-1
2022-12-15T12:06:21.393Z,-1
2022-12-15T12:07:21.310Z,-1
2022-12-15T12:08:21.310Z,-1
2022-12-15T12:09:21.320Z,-0.9
2022-12-15T12:10:21.308Z,-0.9
2022-12-15T12:11:21.368Z,-0.9
2022-12-15T12:12:21.315Z,-0.9
2022-12-15T12:13:21.308Z,-0.9
2022-12-15T12:14:21.312Z,-0.9
2022-12-15T12:15:21.312Z,-0.8
2022-12-15T12:16:21.314Z,-0.8
2022-12-15T12:17:21.313Z,-0.8
2022-12-15T12:18:21.313Z,-0.8
2022-12-15T12:19:21.377Z,-0.8
2022-12-15T12:20:21.317Z,-0.8
2022-12-15T12:21:21.310Z,-0.8
2022-12-15T12:22:21.358Z,-0.8
2022-12-15T12:23:21.485Z,-0.8
2022-12-15T12:24:21.317Z,-0.8
2022-12-15T12:25:21.692Z,-0.8
2022-12-15T12:26:21.784Z,-0.8
2022-12-15T12:27:21.315Z,-0.7
2022-12-15T12:28:21.317Z,-0.7
2022-12-15T12:29:21.324Z,-0.7
2022-12-15T12:30:21.315Z,-0.7
2022-12-15T12:31:21.319Z,-0.7
2022-12-15T12:32:21.318Z,-0.7
2022-12-15T12:33:21.315Z,-0.6
2022-12-15T12:34:21.308Z,-0.6
2022-12-15T12:35:30.074Z,-0.6
2022-12-15T12:36:21.315Z,-0.6
2022-12-15T12:37:21.313Z,-0.6
2022-12-15T12:38:21.310Z,-0.6
2022-12-15T12:39:21.312Z,-0.5
2022-12-15T12:40:21.308Z,-0.5
2022-12-15T12:41:21.310Z,-0.5
2022-12-15T12:42:21.318Z,-0.5
2022-12-15T12:43:21.318Z,-0.5
2022-12-15T12:44:21.311Z,-0.5
2022-12-15T12:45:21.325Z,-0.5
2022-12-15T12:46:21.316Z,-0.5
2022-12-15T12:47:21.312Z,-0.5
2022-12-15T12:48:21.313Z,-0.5
2022-12-15T12:49:26.568Z,-0.5
2022-12-15T12:50:21.309Z,-0.5
2022-12-15T12:51:21.308Z,-0.5
2022-12-15T12:52:21.321Z,-0.5
2022-12-15T12:53:21.445Z,-0.5
2022-12-15T12:54:21.965Z,-0.5
2022-12-15T12:55:21.310Z,-0.5
2022-12-15T12:56:21.455Z,-0.5
2022-12-15T12:57:21.334Z,-0.5
2022-12-15T12:58:21.310Z,-0.5
2022-12-15T12:59:21.349Z,-0.4
2022-12-15T13:00:21.406Z,-0.4
2022-12-15T13:01:21.526Z,-0.4
2022-12-15T13:02:21.462Z,-0.4
2022-12-15T13:03:21.309Z,-0.4
2022-12-15T13:04:21.319Z,-0.3
2022-12-15T13:05:21.310Z,-0.3
2022-12-15T13:06:21.311Z,-0.3
2022-12-15T13:07:21.336Z,-0.3
2022-12-15T13:08:21.313Z,-0.3
2022-12-15T13:09:21.318Z,-0.3
2022-12-15T13:10:21.315Z,-0.3
2022-12-15T13:11:21.311Z,-0.3
2022-12-15T13:12:50.671Z,-0.3
2022-12-15T13:13:21.386Z,-0.3
2022-12-15T13:14:26.000Z,-0.3
2022-12-15T13:15:21.436Z,-0.3
2022-12-15T13:16:21.314Z,-0.3
2022-12-15T13:17:27.770Z,-0.3
2022-12-15T13:18:21.314Z,-0.3
2022-12-15T13:19:21.330Z,-0.3
2022-12-15T13:20:21.309Z,-0.3
2022-12-15T13:21:21.316Z,-0.3
2022-12-15T13:22:21.308Z,-0.3
2022-12-15T13:23:21.309Z,-0.3
2022-12-15T13:24:21.363Z,-0.2
2022-12-15T13:25:21.315Z,-0.3
2022-12-15T13:26:21.313Z,-0.3